Latest Coastal Weather Observations for Flinders Island Airport

IDT60701

Issued at 1:02 am EST Friday 26 August 2016 (issued every 10 minutes, with the page automatically refreshed every 10 minutes)

About coastal observations | Map of coastal stations | Coastal observations for TAS | Marine services | Other Formats
Station Details ID: 099005 Name: FLINDERS ISLAND AIRPORT Lat: -40.09 Lon: 148.00 Height: 9.0 m
Data from the previous 72 hours. | See also: Recent months at Flinders Island Airport
Date/Time
EST
Temp
°C
Wind Pressure Rain since
9am
mm
Weather Cloud Vis
km
Sea
Height
m
Swell
Dir  Spd
kts
Gust
kts
hPa Trend Height
m
Period
s
Dir
26/01:00am 9.3 WSW 16 19 1015.6 - 0.0 - - 10 - - - -
26/12:30am 8.6 WSW 13 16 1015.5 - 0.0 - Partly cloudy 10 - - - -
26/12:00am 9.0 WSW 13 15 1015.3 - 0.0 - - 10 - - - -
 
Date/Time
EST
Temp
°C
Wind Pressure Rain since
9am
mm
Weather Cloud Vis
km
Sea
Height
m
Swell
Dir  Spd
kts
Gust
kts
hPa Trend Height
m
Period
s
Dir
25/11:46pm 8.4 WSW 14 17 1015.3 - 0.0 - Partly cloudy - - - - -
25/11:30pm 3.3 NNW 5 7 1015.2 - 0.0 - Partly cloudy - - - - -
25/11:00pm 2.5 ENE 6 7 1015.2 - 0.0 - Partly cloudy - - - - -
25/10:30pm 1.8 NE 5 6 1015.3 - 0.0 - - - - - - -
25/10:00pm 1.9 ENE 6 7 1015.4 - 0.0 - - 10 - - - -
25/09:30pm 2.3 NE 6 7 1015.4 - 0.0 - - 10 - - - -
25/09:00pm 2.9 NE 6 7 1015.4 - 0.0 - - - - - - -
25/08:30pm 2.6 NNE 4 5 1015.3 - 0.0 - - 10 - - - -
25/08:00pm 3.1 NNE 5 6 1014.9 - 0.0 - - 10 - - - -
25/07:30pm 3.0 NE 6 6 1014.8 - 0.0 - - 10 - - - -
25/07:00pm 4.1 ENE 5 6 1014.5 - 0.0 - - 10 - - - -
25/06:30pm 4.7 NNE 4 5 1014.0 - 0.0 - - 10 - - - -
25/06:00pm 8.4 WSW 7 9 1013.6 - 0.0 - - 10 - - - -
25/05:30pm 9.9 SW 9 12 1013.5 - 0.0 - - 10 - - - -
25/05:00pm 10.7 SW 9 11 1013.0 - 0.0 - - 10 - - - -
25/04:30pm 11.2 SW 9 12 1012.7 - 0.0 - - 10 - - - -
25/04:00pm 11.4 SW 9 10 1012.4 - 0.0 - - 10 - - - -
25/03:30pm 11.9 SSW 10 13 1012.2 - 0.0 - - 10 - - - -
25/03:00pm 11.9 SSW 10 12 1012.0 - 0.0 - - 10 - - - -
25/02:30pm 12.4 SSW 11 14 1011.8 - 0.0 - - 10 - - - -
25/02:00pm 12.1 SSW 9 10 1011.3 - 0.0 - - 10 - - - -
25/01:30pm 11.8 SSW 11 14 1011.2 - 0.0 - - 10 - - - -
25/01:00pm 11.9 SSW 11 14 1011.1 - 0.0 - - 10 - - - -
25/12:30pm 12.5 SSW 10 12 1011.2 - 0.0 - - 10 - - - -
25/12:00pm 12.3 SSW 10 12 1011.4 - 0.0 - - 10 - - - -
25/11:30am 12.2 SW 9 10 1011.3 - 0.0 - - 10 - - - -
25/11:00am 11.5 SSW 7 9 1011.2 - 0.0 - - 10 - - - -
25/10:30am 11.4 SSW 6 7 1010.9 - 0.0 - - 10 - - - -
25/10:00am 11.3 SSW 5 7 1010.8 - 0.0 - - 10 - - - -
25/09:30am 11.2 SSW 5 6 1010.7 - 0.0 - Partly cloudy 10 - - - -
25/09:00am 10.7 SW 5 6 1010.7 - 0.0 - Mostly clear 10 - - - -
25/08:30am 9.4 WSW 7 8 1010.6 - 0.0 - Partly cloudy 10 - - - -
25/08:00am 10.1 WSW 7 9 1010.4 - 0.0 - Partly cloudy 10 - - - -
25/07:30am 8.4 WSW 7 8 1010.2 - 0.0 - Partly cloudy 10 - - - -
25/07:00am 7.1 WSW 7 9 1009.8 - 0.0 - Partly cloudy 10 - - - -
25/06:30am 8.3 WSW 8 10 1009.7 - 0.0 - Partly cloudy 10 - - - -
25/06:00am 8.8 SW 8 11 1009.3 - 0.0 - Mostly cloudy 10 - - - -
25/05:30am 9.0 WSW 11 13 1009.1 - 0.0 - Partly cloudy 10 - - - -
25/05:00am 9.5 WSW 11 13 1009.1 - 0.0 - Partly cloudy 10 - - - -
25/04:30am 9.3 WSW 12 15 1008.9 - 0.0 - Partly cloudy 10 - - - -
25/04:00am 9.3 WSW 13 16 1008.9 - 0.0 - Partly cloudy 10 - - - -
25/03:30am 9.2 WSW 13 16 1008.9 - 0.0 - Partly cloudy 10 - - - -
25/03:00am 8.9 WSW 12 14 1009.0 - 0.0 - Partly cloudy 10 - - - -
25/02:30am 8.9 WSW 11 14 1009.1 - 0.0 - Partly cloudy 10 - - - -
25/02:00am 9.1 WSW 13 16 1009.2 - 0.0 - Partly cloudy 10 - - - -
25/01:30am 9.2 WSW 14 17 1009.5 - 0.0 - Partly cloudy 10 - - - -
25/01:00am 9.1 WSW 12 15 1009.7 - 0.0 - Partly cloudy 10 - - - -
25/12:30am 9.6 WSW 12 16 1009.8 - 0.0 - Partly cloudy 10 - - - -
25/12:00am 9.3 WSW 12 15 1010.0 - 0.0 - - 10 - - - -
 
Date/Time
EST
Temp
°C
Wind Pressure Rain since
9am
mm
Weather Cloud Vis
km
Sea
Height
m
Swell
Dir  Spd
kts
Gust
kts
hPa Trend Height
m
Period
s
Dir
24/11:30pm 9.8 WSW 13 15 1010.1 - 0.0 - - 10 - - - -
24/11:00pm 9.8 WSW 12 15 1010.3 - 0.0 - Partly cloudy 10 - - - -
24/10:30pm 10.1 WSW 14 16 1010.5 - 0.0 - Partly cloudy 10 - - - -
24/10:00pm 10.0 WSW 15 18 1010.7 - 0.0 - Partly cloudy 10 - - - -
24/09:30pm 10.0 WSW 15 18 1010.9 - 0.0 - Partly cloudy 10 - - - -
24/09:00pm 10.1 WSW 14 16 1011.0 - 0.0 - Mostly clear 10 - - - -
24/08:30pm 10.3 WSW 13 16 1011.3 - 0.0 - Partly cloudy 10 - - - -
24/08:00pm 10.3 WSW 13 16 1011.4 - 0.0 - Partly cloudy 10 - - - -
24/07:30pm 10.3 WSW 13 17 1011.5 - 0.0 - Partly cloudy 10 - - - -
24/07:00pm 10.1 W 15 18 1011.4 - 0.0 - Partly cloudy 10 - - - -
24/06:30pm 9.9 W 13 17 1011.4 - 0.0 - Partly cloudy 10 - - - -
24/06:00pm 10.2 W 13 16 1011.5 - 0.0 - Partly cloudy 10 - - - -
24/05:30pm 10.4 W 13 16 1011.5 - 0.0 - Partly cloudy 10 - - - -
24/05:00pm 10.7 W 14 17 1011.6 - 0.0 - Partly cloudy 10 - - - -
24/04:30pm 10.8 W 14 17 1011.5 - 0.0 - Partly cloudy 10 - - - -
24/04:00pm 11.2 WSW 15 18 1011.5 - 0.0 - Partly cloudy 10 - - - -
24/03:30pm 11.4 WSW 14 17 1011.5 - 0.0 - Partly cloudy 10 - - - -
24/03:00pm 11.4 WSW 12 15 1011.5 - 0.0 - Mostly clear 10 - - - -
24/02:30pm 11.9 WSW 12 14 1011.6 - 0.0 - Partly cloudy 10 - - - -
24/02:00pm 11.5 WSW 13 16 1011.8 - 0.0 - Partly cloudy 10 - - - -
24/01:30pm 11.3 WSW 14 17 1012.0 - 0.0 - Partly cloudy 10 - - - -
24/01:00pm 12.2 WSW 14 16 1012.4 - 0.0 - Partly cloudy 10 - - - -
24/12:30pm 11.1 WSW 13 16 1012.7 - 0.0 - Partly cloudy 10 - - - -
24/12:00pm 11.6 WSW 14 16 1013.2 - 0.0 - Mostly clear 10 - - - -
24/11:30am 10.7 WSW 14 16 1013.8 - 0.0 - Partly cloudy 10 - - - -
24/11:00am 11.1 WSW 13 16 1014.1 - 0.0 - Partly cloudy 10 - - - -
24/10:30am 11.2 WSW 12 15 1014.3 - 0.0 - Partly cloudy 10 - - - -
24/10:00am 11.3 WSW 13 17 1014.4 - 0.0 - Partly cloudy 10 - - - -
24/09:30am 10.6 WSW 11 15 1014.6 - 0.0 - Partly cloudy 10 - - - -
24/09:00am 10.4 WSW 12 16 1014.9 - 0.0 - Partly cloudy 10 - - - -
24/08:30am 10.5 WSW 12 16 1015.2 - 0.0 - Partly cloudy 10 - - - -
24/08:00am 9.5 WSW 11 14 1015.1 - 0.0 - Partly cloudy 10 - - - -
24/07:30am 9.4 WSW 11 14 1015.1 - 0.0 - Partly cloudy 10 - - - -
24/07:00am 8.2 W 9 10 1014.9 - 0.0 - Partly cloudy 10 - - - -
24/06:30am 8.0 WSW 10 12 1014.9 - 0.0 - Partly cloudy 10 - - - -
24/06:00am 8.8 WSW 10 13 1014.8 - 0.0 - Partly cloudy 10 - - - -
24/05:30am 8.1 WSW 11 13 1014.7 - 0.0 - - 10 - - - -
24/05:00am 8.2 WSW 9 11 1014.6 - 0.0 - Partly cloudy 10 - - - -
24/04:30am 8.3 WSW 10 12 1014.5 - 0.0 - Partly cloudy 10 - - - -
24/04:00am 8.6 WSW 11 13 1014.5 - 0.0 - Partly cloudy 10 - - - -
24/03:30am 9.0 WSW 11 14 1014.5 - 0.0 - Partly cloudy 10 - - - -
24/03:00am 8.9 WSW 11 14 1014.7 - 0.0 - - 10 - - - -
24/02:30am 9.2 WSW 13 15 1015.1 - 0.0 - - 10 - - - -
24/02:00am 9.4 SW 13 16 1015.1 - 0.0 - - 10 - - - -
24/01:30am 9.7 SW 12 16 1015.1 - 0.0 - - 10 - - - -
24/01:00am 9.6 SW 14 17 1015.0 - 0.0 - - 10 - - - -
24/12:30am 9.7 SW 12 16 1015.2 - 0.0 - - 10 - - - -
24/12:00am 10.1 SW 14 17 1015.4 - 0.0 - - 10 - - - -
 
Date/Time
EST
Temp
°C
Wind Pressure Rain since
9am
mm
Weather Cloud Vis
km
Sea
Height
m
Swell
Dir  Spd
kts
Gust
kts
hPa Trend Height
m
Period
s
Dir
23/11:30pm 9.4 WSW 13 15 1015.5 - 0.0 - - 10 - - - -
23/11:00pm 9.8 WSW 13 15 1015.7 - 0.0 - - 10 - - - -
23/10:30pm 9.9 W 11 14 1016.0 - 0.0 - Partly cloudy 10 - - - -
23/10:00pm 10.0 W 11 14 1016.2 - 0.0 - Partly cloudy 10 - - - -
23/09:30pm 10.0 W 11 13 1016.3 - 0.0 - Partly cloudy 10 - - - -
23/09:00pm 10.0 W 13 14 1016.4 - 0.0 - Partly cloudy 10 - - - -
23/08:30pm 9.9 WSW 11 14 1016.3 - 0.0 - Partly cloudy 10 - - - -
23/08:00pm 10.2 WSW 13 16 1016.1 - 0.0 - Partly cloudy 10 - - - -
23/07:30pm 9.9 WSW 14 16 1016.1 - 0.0 - Partly cloudy 10 - - - -
23/07:00pm 10.1 WSW 14 16 1015.9 - 0.0 - Partly cloudy 10 - - - -
23/06:30pm 10.0 WSW 14 18 1015.8 - 0.0 - Partly cloudy 10 - - - -
23/06:00pm 10.1 WSW 13 16 1015.7 - 0.0 - Partly cloudy 10 - - - -
23/05:30pm 9.7 WSW 14 17 1015.4 - 0.0 - Partly cloudy 10 - - - -
23/05:00pm 10.0 WSW 13 16 1015.3 - 0.0 - Partly cloudy 10 - - - -
23/04:30pm 10.4 WSW 13 16 1015.0 - 0.0 - Partly cloudy 10 - - - -
23/04:00pm 10.6 WSW 11 14 1014.7 - 0.0 - Partly cloudy 10 - - - -
23/03:30pm 10.9 WSW 13 16 1014.6 - 0.0 - Partly cloudy 10 - - - -
23/03:00pm 11.4 WSW 12 15 1014.4 - 0.0 - Mostly clear 10 - - - -
23/02:30pm 11.3 WSW 11 14 1014.3 - 0.0 - - 10 - - - -
23/02:00pm 10.9 SW 11 14 1014.3 - 0.0 - Partly cloudy 10 - - - -
23/01:30pm 11.3 WSW 14 17 1014.1 - 0.0 - Partly cloudy 10 - - - -
23/01:00pm 11.5 WSW 14 19 1014.4 - 0.0 - Partly cloudy 10 - - - -
23/12:30pm 11.4 WSW 12 16 1014.8 - 0.0 - Partly cloudy 10 - - - -
23/12:00pm 11.6 WSW 13 16 1015.1 - 0.0 - Mostly clear 10 - - - -
23/11:30am 11.3 WSW 14 17 1015.5 - 0.0 - Partly cloudy 10 - - - -
23/11:00am 10.8 WSW 15 19 1015.6 - 0.0 - Partly cloudy 10 - - - -
23/10:30am 10.9 WSW 16 19 1015.6 - 0.0 - Partly cloudy 10 - - - -
23/10:00am 10.9 WSW 16 19 1015.6 - 0.0 - Partly cloudy 10 - - - -
23/09:30am 10.3 WSW 15 18 1015.6 - 0.0 - Partly cloudy 10 - - - -
23/09:00am 10.6 WSW 15 18 1015.4 - 0.0 - Mostly clear 10 - - - -
23/08:30am 9.6 WSW 14 17 1015.4 - 0.0 - Partly cloudy 10 - - - -
23/08:00am 9.8 WSW 13 17 1015.3 - 0.0 - Partly cloudy 10 - - - -
23/07:30am 9.4 SW 14 18 1015.1 - 0.0 - Partly cloudy 10 - - - -
23/07:00am 9.3 SW 13 16 1014.8 - 0.0 - Partly cloudy 10 - - - -
23/06:30am 9.4 SW 14 17 1014.6 - 0.0 - Partly cloudy 10 - - - -
23/06:00am 9.4 SW 13 18 1014.3 - 0.0 - Cloudy 10 - - - -
23/05:30am 9.7 SW 12 16 1013.9 - 0.0 - Partly cloudy 10 - - - -
23/05:00am 9.4 SW 14 17 1013.9 - 0.0 - Partly cloudy 10 - - - -
23/04:30am 9.5 SW 14 17 1013.9 - 0.0 - Partly cloudy 10 - - - -
23/04:00am 9.6 WSW 14 19 1013.9 - 0.0 - Partly cloudy 10 - - - -
23/03:30am 9.5 WSW 15 18 1013.8 - 0.0 - Partly cloudy 10 - - - -
23/03:00am 9.6 WSW 15 18 1013.9 - 0.0 - Partly cloudy 10 - - - -
23/02:30am 9.5 WSW 16 18 1014.1 - 0.0 - - 10 - - - -
23/02:00am 9.6 WSW 15 17 1014.3 - 0.0 - Partly cloudy 10 - - - -
23/01:30am 9.6 WSW 14 17 1014.6 - 0.0 - Partly cloudy 10 - - - -

Other Formats:

Comma delimited format used in spreadsheet applications
http://www.bom.gov.au/fwo/IDT60701/IDT60701.94980.axf

JavaScript Object Notation format (JSON) in row-major order
http://www.bom.gov.au/fwo/IDT60701/IDT60701.94980.json